sensor_id;sensor_type;location;lat;lon;timestamp;P1;durP1;ratioP1;P2;durP2;ratioP2
79139;SDS011;68546;59.142;37.948;2023-11-21T00:00:58;345.42;;;98.00;;
79139;SDS011;68546;59.142;37.948;2023-11-21T00:03:27;344.87;;;97.47;;
79139;SDS011;68546;59.142;37.948;2023-11-21T00:05:53;345.08;;;97.70;;
79139;SDS011;68546;59.142;37.948;2023-11-21T00:08:20;344.35;;;97.93;;
79139;SDS011;68546;59.142;37.948;2023-11-21T00:10:46;343.33;;;97.38;;
79139;SDS011;68546;59.142;37.948;2023-11-21T00:13:13;345.67;;;98.63;;
79139;SDS011;68546;59.142;37.948;2023-11-21T00:15:40;346.58;;;98.47;;
79139;SDS011;68546;59.142;37.948;2023-11-21T00:18:06;347.27;;;98.28;;
79139;SDS011;68546;59.142;37.948;2023-11-21T00:20:35;348.70;;;98.40;;
79139;SDS011;68546;59.142;37.948;2023-11-21T00:23:02;349.20;;;98.80;;
79139;SDS011;68546;59.142;37.948;2023-11-21T00:25:28;345.75;;;98.03;;
79139;SDS011;68546;59.142;37.948;2023-11-21T00:27:54;346.93;;;97.93;;
79139;SDS011;68546;59.142;37.948;2023-11-21T00:30:21;346.80;;;98.32;;
79139;SDS011;68546;59.142;37.948;2023-11-21T00:32:47;346.58;;;98.57;;
79139;SDS011;68546;59.142;37.948;2023-11-21T00:35:14;351.58;;;99.43;;
79139;SDS011;68546;59.142;37.948;2023-11-21T00:37:41;350.35;;;99.05;;
79139;SDS011;68546;59.142;37.948;2023-11-21T00:40:08;351.70;;;100.40;;
79139;SDS011;68546;59.142;37.948;2023-11-21T00:42:35;351.08;;;99.35;;
79139;SDS011;68546;59.142;37.948;2023-11-21T00:45:01;350.50;;;99.10;;
79139;SDS011;68546;59.142;37.948;2023-11-21T00:47:30;355.75;;;100.85;;
79139;SDS011;68546;59.142;37.948;2023-11-21T00:49:57;361.13;;;101.78;;
79139;SDS011;68546;59.142;37.948;2023-11-21T00:52:23;363.63;;;102.17;;
79139;SDS011;68546;59.142;37.948;2023-11-21T00:54:49;363.83;;;102.43;;
79139;SDS011;68546;59.142;37.948;2023-11-21T00:57:16;362.33;;;101.78;;
79139;SDS011;68546;59.142;37.948;2023-11-21T00:59:42;363.77;;;102.45;;
79139;SDS011;68546;59.142;37.948;2023-11-21T01:02:09;366.08;;;103.18;;
79139;SDS011;68546;59.142;37.948;2023-11-21T01:04:36;368.02;;;104.03;;
79139;SDS011;68546;59.142;37.948;2023-11-21T01:07:03;365.40;;;102.80;;
79139;SDS011;68546;59.142;37.948;2023-11-21T01:09:31;362.67;;;102.07;;
79139;SDS011;68546;59.142;37.948;2023-11-21T01:11:57;363.33;;;102.65;;
79139;SDS011;68546;59.142;37.948;2023-11-21T01:14:25;361.00;;;102.47;;
79139;SDS011;68546;59.142;37.948;2023-11-21T01:16:52;360.27;;;101.60;;
79139;SDS011;68546;59.142;37.948;2023-11-21T01:19:19;359.25;;;101.50;;
79139;SDS011;68546;59.142;37.948;2023-11-21T01:21:45;362.52;;;102.50;;
79139;SDS011;68546;59.142;37.948;2023-11-21T01:24:12;361.42;;;102.25;;
79139;SDS011;68546;59.142;37.948;2023-11-21T01:26:39;359.63;;;101.80;;
79139;SDS011;68546;59.142;37.948;2023-11-21T01:29:05;363.50;;;103.10;;
79139;SDS011;68546;59.142;37.948;2023-11-21T01:31:31;365.88;;;102.90;;
79139;SDS011;68546;59.142;37.948;2023-11-21T01:33:58;367.17;;;103.10;;
79139;SDS011;68546;59.142;37.948;2023-11-21T01:36:29;366.55;;;103.60;;
79139;SDS011;68546;59.142;37.948;2023-11-21T01:38:59;365.25;;;103.30;;
79139;SDS011;68546;59.142;37.948;2023-11-21T01:41:26;364.97;;;103.10;;
79139;SDS011;68546;59.142;37.948;2023-11-21T01:43:53;362.17;;;102.15;;
79139;SDS011;68546;59.142;37.948;2023-11-21T01:46:19;362.90;;;102.55;;
79139;SDS011;68546;59.142;37.948;2023-11-21T01:48:48;366.55;;;103.82;;
79139;SDS011;68546;59.142;37.948;2023-11-21T01:51:15;364.25;;;102.93;;
79139;SDS011;68546;59.142;37.948;2023-11-21T01:53:42;364.95;;;103.05;;
79139;SDS011;68546;59.142;37.948;2023-11-21T01:56:10;368.35;;;103.65;;
79139;SDS011;68546;59.142;37.948;2023-11-21T01:58:36;369.00;;;103.77;;
79139;SDS011;68546;59.142;37.948;2023-11-21T02:01:02;368.88;;;103.68;;
79139;SDS011;68546;59.142;37.948;2023-11-21T02:03:29;366.63;;;103.68;;
79139;SDS011;68546;59.142;37.948;2023-11-21T02:05:55;368.33;;;104.13;;
79139;SDS011;68546;59.142;37.948;2023-11-21T02:08:21;362.45;;;102.25;;
79139;SDS011;68546;59.142;37.948;2023-11-21T02:10:48;364.20;;;102.97;;
79139;SDS011;68546;59.142;37.948;2023-11-21T02:13:14;368.63;;;103.70;;
79139;SDS011;68546;59.142;37.948;2023-11-21T02:15:42;368.45;;;103.63;;
79139;SDS011;68546;59.142;37.948;2023-11-21T02:18:09;367.67;;;104.00;;
79139;SDS011;68546;59.142;37.948;2023-11-21T02:20:37;368.02;;;104.57;;
79139;SDS011;68546;59.142;37.948;2023-11-21T02:23:04;368.20;;;104.00;;
79139;SDS011;68546;59.142;37.948;2023-11-21T02:25:32;364.83;;;103.45;;
79139;SDS011;68546;59.142;37.948;2023-11-21T02:28:00;362.55;;;102.43;;
79139;SDS011;68546;59.142;37.948;2023-11-21T02:30:29;363.00;;;103.00;;
79139;SDS011;68546;59.142;37.948;2023-11-21T02:32:59;362.30;;;102.25;;
79139;SDS011;68546;59.142;37.948;2023-11-21T02:35:26;364.02;;;102.95;;
79139;SDS011;68546;59.142;37.948;2023-11-21T02:37:53;365.20;;;103.20;;
79139;SDS011;68546;59.142;37.948;2023-11-21T02:40:19;361.10;;;102.82;;
79139;SDS011;68546;59.142;37.948;2023-11-21T02:42:46;366.02;;;103.80;;
79139;SDS011;68546;59.142;37.948;2023-11-21T02:45:14;365.17;;;103.22;;
79139;SDS011;68546;59.142;37.948;2023-11-21T02:47:43;358.47;;;101.30;;
79139;SDS011;68546;59.142;37.948;2023-11-21T02:50:10;359.50;;;101.45;;
79139;SDS011;68546;59.142;37.948;2023-11-21T02:52:37;361.65;;;101.80;;
79139;SDS011;68546;59.142;37.948;2023-11-21T02:55:04;360.97;;;101.87;;
79139;SDS011;68546;59.142;37.948;2023-11-21T02:57:31;358.95;;;101.43;;
79139;SDS011;68546;59.142;37.948;2023-11-21T02:59:58;357.08;;;101.47;;
79139;SDS011;68546;59.142;37.948;2023-11-21T03:02:25;357.83;;;101.13;;
79139;SDS011;68546;59.142;37.948;2023-11-21T03:04:52;363.30;;;102.85;;
79139;SDS011;68546;59.142;37.948;2023-11-21T03:07:18;363.52;;;102.60;;
79139;SDS011;68546;59.142;37.948;2023-11-21T03:09:45;364.65;;;103.03;;
79139;SDS011;68546;59.142;37.948;2023-11-21T03:12:12;359.73;;;101.33;;
79139;SDS011;68546;59.142;37.948;2023-11-21T03:14:41;360.40;;;102.03;;
79139;SDS011;68546;59.142;37.948;2023-11-21T03:17:07;360.27;;;101.75;;
79139;SDS011;68546;59.142;37.948;2023-11-21T03:19:34;365.60;;;102.97;;
79139;SDS011;68546;59.142;37.948;2023-11-21T03:22:00;364.95;;;102.72;;
79139;SDS011;68546;59.142;37.948;2023-11-21T03:24:26;362.38;;;102.68;;
79139;SDS011;68546;59.142;37.948;2023-11-21T03:26:53;363.33;;;102.82;;
79139;SDS011;68546;59.142;37.948;2023-11-21T03:29:19;365.13;;;102.82;;
79139;SDS011;68546;59.142;37.948;2023-11-21T03:31:45;365.15;;;104.13;;
79139;SDS011;68546;59.142;37.948;2023-11-21T03:34:23;364.23;;;102.88;;
79139;SDS011;68546;59.142;37.948;2023-11-21T03:36:54;364.13;;;103.00;;
79139;SDS011;68546;59.142;37.948;2023-11-21T03:39:21;362.63;;;103.28;;
79139;SDS011;68546;59.142;37.948;2023-11-21T03:41:48;362.58;;;102.43;;
79139;SDS011;68546;59.142;37.948;2023-11-21T03:44:15;364.83;;;103.20;;
79139;SDS011;68546;59.142;37.948;2023-11-21T03:46:44;364.25;;;102.55;;
79139;SDS011;68546;59.142;37.948;2023-11-21T03:49:12;364.88;;;103.15;;
79139;SDS011;68546;59.142;37.948;2023-11-21T03:51:40;361.40;;;102.07;;
79139;SDS011;68546;59.142;37.948;2023-11-21T03:54:07;359.48;;;101.75;;
79139;SDS011;68546;59.142;37.948;2023-11-21T03:56:33;364.48;;;102.90;;
79139;SDS011;68546;59.142;37.948;2023-11-21T03:59:00;362.50;;;102.20;;
79139;SDS011;68546;59.142;37.948;2023-11-21T04:01:26;360.63;;;101.57;;
79139;SDS011;68546;59.142;37.948;2023-11-21T04:03:52;361.70;;;102.22;;
79139;SDS011;68546;59.142;37.948;2023-11-21T04:06:19;360.98;;;102.35;;
79139;SDS011;68546;59.142;37.948;2023-11-21T04:08:45;360.37;;;102.03;;
79139;SDS011;68546;59.142;37.948;2023-11-21T04:11:12;361.77;;;102.25;;
79139;SDS011;68546;59.142;37.948;2023-11-21T04:13:39;361.33;;;102.55;;
79139;SDS011;68546;59.142;37.948;2023-11-21T04:16:06;362.35;;;102.25;;
79139;SDS011;68546;59.142;37.948;2023-11-21T04:18:35;363.73;;;102.60;;
79139;SDS011;68546;59.142;37.948;2023-11-21T04:21:02;365.08;;;103.28;;
79139;SDS011;68546;59.142;37.948;2023-11-21T04:23:30;361.38;;;102.47;;
79139;SDS011;68546;59.142;37.948;2023-11-21T04:25:57;361.53;;;102.00;;
79139;SDS011;68546;59.142;37.948;2023-11-21T04:28:24;361.38;;;103.00;;
79139;SDS011;68546;59.142;37.948;2023-11-21T04:30:51;363.23;;;102.90;;
79139;SDS011;68546;59.142;37.948;2023-11-21T04:33:18;360.70;;;102.10;;
79139;SDS011;68546;59.142;37.948;2023-11-21T04:35:44;361.92;;;102.65;;
79139;SDS011;68546;59.142;37.948;2023-11-21T04:38:11;361.52;;;103.00;;
79139;SDS011;68546;59.142;37.948;2023-11-21T04:40:37;361.38;;;102.28;;
79139;SDS011;68546;59.142;37.948;2023-11-21T04:43:04;359.48;;;102.05;;
79139;SDS011;68546;59.142;37.948;2023-11-21T04:45:31;361.75;;;102.95;;
79139;SDS011;68546;59.142;37.948;2023-11-21T04:47:57;360.30;;;101.90;;
79139;SDS011;68546;59.142;37.948;2023-11-21T04:50:24;359.80;;;101.53;;
79139;SDS011;68546;59.142;37.948;2023-11-21T04:52:53;360.23;;;102.45;;
79139;SDS011;68546;59.142;37.948;2023-11-21T04:55:19;360.00;;;101.38;;
79139;SDS011;68546;59.142;37.948;2023-11-21T04:57:46;359.93;;;102.40;;
79139;SDS011;68546;59.142;37.948;2023-11-21T05:00:13;355.67;;;100.57;;
79139;SDS011;68546;59.142;37.948;2023-11-21T05:02:40;360.88;;;102.13;;
79139;SDS011;68546;59.142;37.948;2023-11-21T05:05:07;362.42;;;102.32;;
79139;SDS011;68546;59.142;37.948;2023-11-21T05:07:36;358.85;;;101.50;;
79139;SDS011;68546;59.142;37.948;2023-11-21T05:10:04;362.80;;;103.90;;
79139;SDS011;68546;59.142;37.948;2023-11-21T05:12:37;359.00;;;101.55;;
79139;SDS011;68546;59.142;37.948;2023-11-21T05:15:04;357.20;;;101.17;;
79139;SDS011;68546;59.142;37.948;2023-11-21T05:17:38;359.25;;;101.82;;
79139;SDS011;68546;59.142;37.948;2023-11-21T05:20:08;357.38;;;101.32;;
79139;SDS011;68546;59.142;37.948;2023-11-21T05:22:39;358.67;;;102.13;;
79139;SDS011;68546;59.142;37.948;2023-11-21T05:25:07;354.52;;;100.72;;
79139;SDS011;68546;59.142;37.948;2023-11-21T05:27:34;356.00;;;100.75;;
79139;SDS011;68546;59.142;37.948;2023-11-21T05:30:02;357.98;;;100.90;;
79139;SDS011;68546;59.142;37.948;2023-11-21T05:32:35;357.98;;;101.03;;
79139;SDS011;68546;59.142;37.948;2023-11-21T05:35:01;358.27;;;102.10;;
79139;SDS011;68546;59.142;37.948;2023-11-21T05:37:28;358.42;;;101.03;;
79139;SDS011;68546;59.142;37.948;2023-11-21T05:39:54;353.53;;;100.10;;
79139;SDS011;68546;59.142;37.948;2023-11-21T05:42:23;355.17;;;100.60;;
79139;SDS011;68546;59.142;37.948;2023-11-21T05:44:50;357.02;;;100.88;;
79139;SDS011;68546;59.142;37.948;2023-11-21T05:47:16;360.83;;;102.17;;
79139;SDS011;68546;59.142;37.948;2023-11-21T05:49:44;359.15;;;101.40;;
79139;SDS011;68546;59.142;37.948;2023-11-21T05:52:11;357.52;;;101.75;;
79139;SDS011;68546;59.142;37.948;2023-11-21T05:54:37;356.90;;;100.47;;
79139;SDS011;68546;59.142;37.948;2023-11-21T05:57:03;356.80;;;100.45;;
79139;SDS011;68546;59.142;37.948;2023-11-21T05:59:30;356.00;;;100.97;;
79139;SDS011;68546;59.142;37.948;2023-11-21T06:01:56;356.95;;;100.95;;
79139;SDS011;68546;59.142;37.948;2023-11-21T06:04:22;353.97;;;100.20;;
79139;SDS011;68546;59.142;37.948;2023-11-21T06:06:50;355.02;;;100.03;;
79139;SDS011;68546;59.142;37.948;2023-11-21T06:09:18;352.15;;;100.25;;
79139;SDS011;68546;59.142;37.948;2023-11-21T06:11:45;354.13;;;100.20;;
79139;SDS011;68546;59.142;37.948;2023-11-21T06:14:11;355.20;;;99.93;;
79139;SDS011;68546;59.142;37.948;2023-11-21T06:16:37;352.70;;;99.75;;
79139;SDS011;68546;59.142;37.948;2023-11-21T06:19:03;356.67;;;100.13;;
79139;SDS011;68546;59.142;37.948;2023-11-21T06:21:31;356.20;;;100.13;;
79139;SDS011;68546;59.142;37.948;2023-11-21T06:23:58;355.20;;;100.10;;
79139;SDS011;68546;59.142;37.948;2023-11-21T06:26:24;358.42;;;101.30;;
79139;SDS011;68546;59.142;37.948;2023-11-21T06:28:51;352.23;;;99.80;;
79139;SDS011;68546;59.142;37.948;2023-11-21T06:31:18;354.52;;;100.28;;
79139;SDS011;68546;59.142;37.948;2023-11-21T06:33:45;353.40;;;99.57;;
79139;SDS011;68546;59.142;37.948;2023-11-21T06:36:11;352.60;;;98.80;;
79139;SDS011;68546;59.142;37.948;2023-11-21T06:38:38;353.55;;;99.22;;
79139;SDS011;68546;59.142;37.948;2023-11-21T06:41:04;349.17;;;98.72;;
79139;SDS011;68546;59.142;37.948;2023-11-21T06:43:31;351.77;;;98.88;;
79139;SDS011;68546;59.142;37.948;2023-11-21T06:45:58;354.10;;;99.97;;
79139;SDS011;68546;59.142;37.948;2023-11-21T06:48:24;353.75;;;99.75;;
79139;SDS011;68546;59.142;37.948;2023-11-21T06:50:51;348.20;;;98.05;;
79139;SDS011;68546;59.142;37.948;2023-11-21T06:53:17;347.70;;;97.63;;
79139;SDS011;68546;59.142;37.948;2023-11-21T06:55:44;346.10;;;97.32;;
79139;SDS011;68546;59.142;37.948;2023-11-21T06:58:10;343.80;;;96.80;;
79139;SDS011;68546;59.142;37.948;2023-11-21T07:00:37;345.87;;;97.33;;
79139;SDS011;68546;59.142;37.948;2023-11-21T07:03:03;345.55;;;97.20;;
79139;SDS011;68546;59.142;37.948;2023-11-21T07:05:30;346.88;;;97.20;;
79139;SDS011;68546;59.142;37.948;2023-11-21T07:07:56;344.27;;;97.10;;
79139;SDS011;68546;59.142;37.948;2023-11-21T07:10:22;344.50;;;97.00;;
79139;SDS011;68546;59.142;37.948;2023-11-21T07:12:49;346.33;;;97.28;;
79139;SDS011;68546;59.142;37.948;2023-11-21T07:15:16;343.40;;;96.60;;
79139;SDS011;68546;59.142;37.948;2023-11-21T07:17:45;342.53;;;96.37;;
79139;SDS011;68546;59.142;37.948;2023-11-21T07:20:12;343.52;;;97.07;;
79139;SDS011;68546;59.142;37.948;2023-11-21T07:22:39;340.63;;;95.85;;
79139;SDS011;68546;59.142;37.948;2023-11-21T07:25:06;341.13;;;96.27;;
79139;SDS011;68546;59.142;37.948;2023-11-21T07:27:33;340.33;;;95.70;;
79139;SDS011;68546;59.142;37.948;2023-11-21T07:30:01;342.67;;;96.28;;
79139;SDS011;68546;59.142;37.948;2023-11-21T07:32:30;340.67;;;96.25;;
79139;SDS011;68546;59.142;37.948;2023-11-21T07:34:57;339.88;;;96.35;;
79139;SDS011;68546;59.142;37.948;2023-11-21T07:37:25;341.20;;;96.57;;
79139;SDS011;68546;59.142;37.948;2023-11-21T07:39:54;341.85;;;96.90;;
79139;SDS011;68546;59.142;37.948;2023-11-21T07:42:23;344.20;;;96.63;;
79139;SDS011;68546;59.142;37.948;2023-11-21T07:44:52;341.90;;;95.75;;
79139;SDS011;68546;59.142;37.948;2023-11-21T07:47:18;341.10;;;95.63;;
79139;SDS011;68546;59.142;37.948;2023-11-21T07:49:45;344.00;;;96.80;;
79139;SDS011;68546;59.142;37.948;2023-11-21T07:52:13;343.25;;;96.15;;
79139;SDS011;68546;59.142;37.948;2023-11-21T07:54:41;347.58;;;97.28;;
79139;SDS011;68546;59.142;37.948;2023-11-21T07:57:08;343.10;;;96.45;;
79139;SDS011;68546;59.142;37.948;2023-11-21T07:59:34;345.17;;;97.25;;
79139;SDS011;68546;59.142;37.948;2023-11-21T08:02:00;346.05;;;97.28;;
79139;SDS011;68546;59.142;37.948;2023-11-21T08:04:27;343.40;;;96.88;;
79139;SDS011;68546;59.142;37.948;2023-11-21T08:06:53;345.10;;;96.87;;
79139;SDS011;68546;59.142;37.948;2023-11-21T08:09:19;341.77;;;96.15;;
79139;SDS011;68546;59.142;37.948;2023-11-21T08:11:49;344.40;;;96.68;;
79139;SDS011;68546;59.142;37.948;2023-11-21T08:14:17;345.43;;;97.77;;
79139;SDS011;68546;59.142;37.948;2023-11-21T08:16:43;345.02;;;96.57;;
79139;SDS011;68546;59.142;37.948;2023-11-21T08:19:10;348.15;;;97.10;;
79139;SDS011;68546;59.142;37.948;2023-11-21T08:21:37;349.48;;;97.90;;
79139;SDS011;68546;59.142;37.948;2023-11-21T08:24:06;346.95;;;97.05;;
79139;SDS011;68546;59.142;37.948;2023-11-21T08:26:36;351.35;;;98.85;;
79139;SDS011;68546;59.142;37.948;2023-11-21T08:29:03;347.05;;;97.75;;
79139;SDS011;68546;59.142;37.948;2023-11-21T08:31:32;349.63;;;97.60;;
79139;SDS011;68546;59.142;37.948;2023-11-21T08:33:58;354.33;;;99.22;;
79139;SDS011;68546;59.142;37.948;2023-11-21T08:36:28;354.63;;;99.40;;
79139;SDS011;68546;59.142;37.948;2023-11-21T08:38:54;352.07;;;99.13;;
79139;SDS011;68546;59.142;37.948;2023-11-21T08:41:20;351.30;;;99.18;;
79139;SDS011;68546;59.142;37.948;2023-11-21T08:43:49;350.23;;;98.47;;
79139;SDS011;68546;59.142;37.948;2023-11-21T08:46:16;348.83;;;97.38;;
79139;SDS011;68546;59.142;37.948;2023-11-21T08:48:44;349.88;;;98.07;;
79139;SDS011;68546;59.142;37.948;2023-11-21T08:51:10;352.90;;;99.65;;
79139;SDS011;68546;59.142;37.948;2023-11-21T08:53:38;351.65;;;98.90;;
79139;SDS011;68546;59.142;37.948;2023-11-21T08:56:04;350.90;;;98.33;;
79139;SDS011;68546;59.142;37.948;2023-11-21T08:58:31;352.63;;;99.55;;
79139;SDS011;68546;59.142;37.948;2023-11-21T09:00:58;351.13;;;98.63;;
79139;SDS011;68546;59.142;37.948;2023-11-21T09:03:24;355.40;;;99.90;;
79139;SDS011;68546;59.142;37.948;2023-11-21T09:05:50;356.80;;;100.30;;
79139;SDS011;68546;59.142;37.948;2023-11-21T09:08:17;355.95;;;100.03;;
79139;SDS011;68546;59.142;37.948;2023-11-21T09:10:43;355.83;;;100.00;;
79139;SDS011;68546;59.142;37.948;2023-11-21T09:13:13;357.80;;;101.00;;
79139;SDS011;68546;59.142;37.948;2023-11-21T09:15:39;359.17;;;101.50;;
79139;SDS011;68546;59.142;37.948;2023-11-21T09:18:06;357.60;;;101.40;;
79139;SDS011;68546;59.142;37.948;2023-11-21T09:20:32;355.20;;;100.70;;
79139;SDS011;68546;59.142;37.948;2023-11-21T09:22:58;360.23;;;101.40;;
79139;SDS011;68546;59.142;37.948;2023-11-21T09:25:25;356.38;;;100.40;;
79139;SDS011;68546;59.142;37.948;2023-11-21T09:27:51;356.37;;;100.40;;
79139;SDS011;68546;59.142;37.948;2023-11-21T09:30:17;359.05;;;101.78;;
79139;SDS011;68546;59.142;37.948;2023-11-21T09:32:44;361.40;;;102.40;;
79139;SDS011;68546;59.142;37.948;2023-11-21T09:35:11;358.77;;;101.50;;
79139;SDS011;68546;59.142;37.948;2023-11-21T09:37:39;359.13;;;102.00;;
79139;SDS011;68546;59.142;37.948;2023-11-21T09:40:06;363.33;;;103.18;;
79139;SDS011;68546;59.142;37.948;2023-11-21T09:42:38;361.77;;;102.82;;
79139;SDS011;68546;59.142;37.948;2023-11-21T09:45:13;363.47;;;103.23;;
79139;SDS011;68546;59.142;37.948;2023-11-21T09:47:45;365.65;;;103.22;;
79139;SDS011;68546;59.142;37.948;2023-11-21T09:50:14;368.40;;;104.10;;
79139;SDS011;68546;59.142;37.948;2023-11-21T09:55:47;368.10;;;104.57;;
79139;SDS011;68546;59.142;37.948;2023-11-21T09:58:14;366.98;;;104.18;;
79139;SDS011;68546;59.142;37.948;2023-11-21T10:00:41;368.88;;;103.68;;
79139;SDS011;68546;59.142;37.948;2023-11-21T10:03:08;372.77;;;105.32;;
79139;SDS011;68546;59.142;37.948;2023-11-21T10:05:35;368.60;;;104.30;;
79139;SDS011;68546;59.142;37.948;2023-11-21T10:08:07;368.52;;;103.70;;
79139;SDS011;68546;59.142;37.948;2023-11-21T10:10:36;366.83;;;103.93;;
79139;SDS011;68546;59.142;37.948;2023-11-21T10:13:04;370.45;;;104.95;;
79139;SDS011;68546;59.142;37.948;2023-11-21T10:15:33;373.98;;;105.63;;
79139;SDS011;68546;59.142;37.948;2023-11-21T10:18:03;371.60;;;104.70;;
79139;SDS011;68546;59.142;37.948;2023-11-21T10:20:35;372.70;;;104.20;;
79139;SDS011;68546;59.142;37.948;2023-11-21T10:23:03;371.33;;;104.43;;
79139;SDS011;68546;59.142;37.948;2023-11-21T10:25:30;372.85;;;104.80;;
79139;SDS011;68546;59.142;37.948;2023-11-21T10:27:57;370.02;;;104.32;;
79139;SDS011;68546;59.142;37.948;2023-11-21T10:30:30;369.13;;;104.15;;
79139;SDS011;68546;59.142;37.948;2023-11-21T10:32:59;371.02;;;104.50;;
79139;SDS011;68546;59.142;37.948;2023-11-21T10:38:07;367.15;;;103.60;;
79139;SDS011;68546;59.142;37.948;2023-11-21T10:40:43;368.05;;;103.63;;
79139;SDS011;68546;59.142;37.948;2023-11-21T10:43:10;366.07;;;103.30;;
79139;SDS011;68546;59.142;37.948;2023-11-21T10:45:40;363.75;;;102.45;;
79139;SDS011;68546;59.142;37.948;2023-11-21T10:48:08;367.55;;;102.50;;
79139;SDS011;68546;59.142;37.948;2023-11-21T10:50:37;364.83;;;102.53;;
79139;SDS011;68546;59.142;37.948;2023-11-21T10:53:04;365.27;;;102.90;;
79139;SDS011;68546;59.142;37.948;2023-11-21T10:55:34;367.27;;;103.00;;
79139;SDS011;68546;59.142;37.948;2023-11-21T10:58:01;364.77;;;102.93;;
79139;SDS011;68546;59.142;37.948;2023-11-21T11:00:30;368.07;;;103.30;;
79139;SDS011;68546;59.142;37.948;2023-11-21T11:02:58;367.35;;;103.28;;
79139;SDS011;68546;59.142;37.948;2023-11-21T11:05:26;368.45;;;103.47;;
79139;SDS011;68546;59.142;37.948;2023-11-21T11:08:05;369.57;;;103.67;;
79139;SDS011;68546;59.142;37.948;2023-11-21T11:10:32;368.10;;;103.65;;
79139;SDS011;68546;59.142;37.948;2023-11-21T11:13:00;368.50;;;105.13;;
79139;SDS011;68546;59.142;37.948;2023-11-21T11:15:27;371.45;;;104.28;;
79139;SDS011;68546;59.142;37.948;2023-11-21T11:17:54;371.70;;;104.20;;
79139;SDS011;68546;59.142;37.948;2023-11-21T11:20:31;378.65;;;107.03;;
79139;SDS011;68546;59.142;37.948;2023-11-21T11:26:17;374.27;;;105.70;;
79139;SDS011;68546;59.142;37.948;2023-11-21T11:29:58;378.40;;;106.90;;
79139;SDS011;68546;59.142;37.948;2023-11-21T11:32:13;373.85;;;106.03;;
79139;SDS011;68546;59.142;37.948;2023-11-21T11:35:04;376.40;;;106.30;;
79139;SDS011;68546;59.142;37.948;2023-11-21T11:37:43;375.15;;;106.00;;
79139;SDS011;68546;59.142;37.948;2023-11-21T11:40:10;375.52;;;106.25;;
79139;SDS011;68546;59.142;37.948;2023-11-21T11:42:37;371.25;;;104.45;;
79139;SDS011;68546;59.142;37.948;2023-11-21T11:45:19;372.10;;;105.07;;
79139;SDS011;68546;59.142;37.948;2023-11-21T11:47:45;372.88;;;106.40;;
79139;SDS011;68546;59.142;37.948;2023-11-21T11:50:14;369.30;;;104.78;;
79139;SDS011;68546;59.142;37.948;2023-11-21T11:52:46;369.17;;;104.13;;
79139;SDS011;68546;59.142;37.948;2023-11-21T11:55:15;368.00;;;104.15;;
79139;SDS011;68546;59.142;37.948;2023-11-21T11:57:47;367.50;;;103.93;;
79139;SDS011;68546;59.142;37.948;2023-11-21T12:02:51;367.33;;;104.45;;
79139;SDS011;68546;59.142;37.948;2023-11-21T12:05:19;369.25;;;104.47;;
79139;SDS011;68546;59.142;37.948;2023-11-21T12:07:53;369.70;;;104.70;;
79139;SDS011;68546;59.142;37.948;2023-11-21T12:10:24;368.40;;;104.80;;
79139;SDS011;68546;59.142;37.948;2023-11-21T12:12:54;365.88;;;104.15;;
79139;SDS011;68546;59.142;37.948;2023-11-21T12:15:20;368.60;;;104.40;;
79139;SDS011;68546;59.142;37.948;2023-11-21T12:17:49;365.83;;;103.83;;
79139;SDS011;68546;59.142;37.948;2023-11-21T12:20:19;366.83;;;103.63;;
79139;SDS011;68546;59.142;37.948;2023-11-21T12:22:50;364.13;;;103.50;;
79139;SDS011;68546;59.142;37.948;2023-11-21T12:25:19;365.70;;;103.90;;
79139;SDS011;68546;59.142;37.948;2023-11-21T12:27:51;366.20;;;103.47;;
79139;SDS011;68546;59.142;37.948;2023-11-21T12:30:19;362.87;;;102.67;;
79139;SDS011;68546;59.142;37.948;2023-11-21T12:32:51;364.63;;;103.68;;
79139;SDS011;68546;59.142;37.948;2023-11-21T12:35:19;364.50;;;103.50;;
79139;SDS011;68546;59.142;37.948;2023-11-21T12:37:47;369.33;;;104.80;;
79139;SDS011;68546;59.142;37.948;2023-11-21T12:40:15;366.15;;;104.03;;
79139;SDS011;68546;59.142;37.948;2023-11-21T12:42:43;361.30;;;102.53;;
79139;SDS011;68546;59.142;37.948;2023-11-21T12:47:53;361.83;;;102.38;;
79139;SDS011;68546;59.142;37.948;2023-11-21T12:50:34;362.90;;;103.00;;
79139;SDS011;68546;59.142;37.948;2023-11-21T12:53:02;362.00;;;103.00;;
79139;SDS011;68546;59.142;37.948;2023-11-21T12:55:38;364.45;;;103.60;;
79139;SDS011;68546;59.142;37.948;2023-11-21T12:58:08;361.13;;;102.28;;
79139;SDS011;68546;59.142;37.948;2023-11-21T13:03:03;362.73;;;102.82;;
79139;SDS011;68546;59.142;37.948;2023-11-21T13:05:32;360.13;;;102.07;;
79139;SDS011;68546;59.142;37.948;2023-11-21T13:08:01;358.80;;;102.27;;
79139;SDS011;68546;59.142;37.948;2023-11-21T13:10:32;358.77;;;102.15;;
79139;SDS011;68546;59.142;37.948;2023-11-21T13:13:02;359.55;;;102.43;;
79139;SDS011;68546;59.142;37.948;2023-11-21T13:15:40;361.23;;;102.17;;
79139;SDS011;68546;59.142;37.948;2023-11-21T13:18:06;359.05;;;102.07;;
79139;SDS011;68546;59.142;37.948;2023-11-21T13:20:33;358.10;;;101.57;;
79139;SDS011;68546;59.142;37.948;2023-11-21T13:23:00;355.75;;;101.00;;
79139;SDS011;68546;59.142;37.948;2023-11-21T13:25:27;354.90;;;101.00;;
79139;SDS011;68546;59.142;37.948;2023-11-21T13:27:54;356.23;;;101.43;;
79139;SDS011;68546;59.142;37.948;2023-11-21T13:30:21;355.80;;;100.85;;
79139;SDS011;68546;59.142;37.948;2023-11-21T13:32:53;356.07;;;100.83;;
79139;SDS011;68546;59.142;37.948;2023-11-21T13:35:23;354.83;;;100.63;;
79139;SDS011;68546;59.142;37.948;2023-11-21T13:38:03;353.73;;;100.65;;
79139;SDS011;68546;59.142;37.948;2023-11-21T13:40:32;352.33;;;100.07;;
79139;SDS011;68546;59.142;37.948;2023-11-21T13:43:00;356.77;;;100.97;;
79139;SDS011;68546;59.142;37.948;2023-11-21T13:45:30;357.90;;;101.65;;
79139;SDS011;68546;59.142;37.948;2023-11-21T13:47:56;355.65;;;100.45;;
79139;SDS011;68546;59.142;37.948;2023-11-21T13:50:25;356.98;;;100.80;;
79139;SDS011;68546;59.142;37.948;2023-11-21T13:53:01;356.92;;;101.05;;
79139;SDS011;68546;59.142;37.948;2023-11-21T13:55:44;354.30;;;100.57;;
79139;SDS011;68546;59.142;37.948;2023-11-21T13:58:11;354.50;;;100.80;;
79139;SDS011;68546;59.142;37.948;2023-11-21T14:00:44;359.23;;;101.80;;
79139;SDS011;68546;59.142;37.948;2023-11-21T14:03:14;354.58;;;100.47;;
79139;SDS011;68546;59.142;37.948;2023-11-21T14:05:48;355.57;;;101.03;;
79139;SDS011;68546;59.142;37.948;2023-11-21T14:08:20;354.05;;;100.40;;
79139;SDS011;68546;59.142;37.948;2023-11-21T14:10:47;358.83;;;102.03;;